sensor_id;sensor_type;location;lat;lon;timestamp;temperature;humidity
9219;DHT22;4644;48.858;9.184;2023-08-06T00:01:59;14.90;99.90
9219;DHT22;4644;48.858;9.184;2023-08-06T00:04:26;14.90;99.90
9219;DHT22;4644;48.858;9.184;2023-08-06T00:06:53;14.90;99.90
9219;DHT22;4644;48.858;9.184;2023-08-06T00:09:20;14.90;99.90
9219;DHT22;4644;48.858;9.184;2023-08-06T00:11:47;14.90;99.90
9219;DHT22;4644;48.858;9.184;2023-08-06T00:14:14;14.90;99.90
9219;DHT22;4644;48.858;9.184;2023-08-06T00:16:44;14.90;99.90
9219;DHT22;4644;48.858;9.184;2023-08-06T00:19:12;14.90;99.90
9219;DHT22;4644;48.858;9.184;2023-08-06T00:21:39;14.90;99.90
9219;DHT22;4644;48.858;9.184;2023-08-06T00:24:06;14.90;99.90
9219;DHT22;4644;48.858;9.184;2023-08-06T00:26:33;14.90;99.90
9219;DHT22;4644;48.858;9.184;2023-08-06T00:29:00;14.90;99.90
9219;DHT22;4644;48.858;9.184;2023-08-06T00:31:27;14.80;99.90
9219;DHT22;4644;48.858;9.184;2023-08-06T00:33:55;14.70;99.90
9219;DHT22;4644;48.858;9.184;2023-08-06T00:36:23;14.70;99.90
9219;DHT22;4644;48.858;9.184;2023-08-06T00:38:50;14.60;99.90
9219;DHT22;4644;48.858;9.184;2023-08-06T00:41:17;14.60;99.90
9219;DHT22;4644;48.858;9.184;2023-08-06T00:43:44;14.60;99.90
9219;DHT22;4644;48.858;9.184;2023-08-06T00:46:11;14.60;99.90
9219;DHT22;4644;48.858;9.184;2023-08-06T00:48:41;14.60;99.90
9219;DHT22;4644;48.858;9.184;2023-08-06T00:51:10;14.60;99.90
9219;DHT22;4644;48.858;9.184;2023-08-06T00:53:38;14.60;99.90
9219;DHT22;4644;48.858;9.184;2023-08-06T00:56:06;14.60;99.90
9219;DHT22;4644;48.858;9.184;2023-08-06T00:58:34;14.70;99.90
9219;DHT22;4644;48.858;9.184;2023-08-06T01:01:01;14.60;99.90
9219;DHT22;4644;48.858;9.184;2023-08-06T01:03:29;14.60;99.90
9219;DHT22;4644;48.858;9.184;2023-08-06T01:05:56;14.60;99.90
9219;DHT22;4644;48.858;9.184;2023-08-06T01:08:33;14.60;99.90
9219;DHT22;4644;48.858;9.184;2023-08-06T01:11:14;14.60;99.90
9219;DHT22;4644;48.858;9.184;2023-08-06T01:13:47;14.50;99.90
9219;DHT22;4644;48.858;9.184;2023-08-06T01:16:16;14.40;99.90
9219;DHT22;4644;48.858;9.184;2023-08-06T01:18:43;14.40;99.90
9219;DHT22;4644;48.858;9.184;2023-08-06T01:21:13;14.30;99.90
9219;DHT22;4644;48.858;9.184;2023-08-06T01:23:41;14.30;99.90
9219;DHT22;4644;48.858;9.184;2023-08-06T01:26:15;14.30;99.90
9219;DHT22;4644;48.858;9.184;2023-08-06T01:28:51;14.20;99.90
9219;DHT22;4644;48.858;9.184;2023-08-06T01:31:22;14.20;99.90
9219;DHT22;4644;48.858;9.184;2023-08-06T01:33:52;14.20;99.90
9219;DHT22;4644;48.858;9.184;2023-08-06T01:36:22;14.30;99.90
9219;DHT22;4644;48.858;9.184;2023-08-06T01:38:51;14.30;99.90
9219;DHT22;4644;48.858;9.184;2023-08-06T01:41:19;14.30;99.90
9219;DHT22;4644;48.858;9.184;2023-08-06T01:43:46;14.30;99.90
9219;DHT22;4644;48.858;9.184;2023-08-06T01:46:13;14.30;99.90
9219;DHT22;4644;48.858;9.184;2023-08-06T01:48:40;14.40;99.90
9219;DHT22;4644;48.858;9.184;2023-08-06T01:51:07;14.40;99.90
9219;DHT22;4644;48.858;9.184;2023-08-06T01:53:39;14.50;99.90
9219;DHT22;4644;48.858;9.184;2023-08-06T01:56:06;14.40;99.90
9219;DHT22;4644;48.858;9.184;2023-08-06T01:58:33;14.40;99.90
9219;DHT22;4644;48.858;9.184;2023-08-06T02:01:01;14.20;99.90
9219;DHT22;4644;48.858;9.184;2023-08-06T02:03:28;14.20;99.90
9219;DHT22;4644;48.858;9.184;2023-08-06T02:05:55;14.10;99.90
9219;DHT22;4644;48.858;9.184;2023-08-06T02:08:22;14.00;99.90
9219;DHT22;4644;48.858;9.184;2023-08-06T02:10:51;13.90;99.90
9219;DHT22;4644;48.858;9.184;2023-08-06T02:13:18;13.90;99.90
9219;DHT22;4644;48.858;9.184;2023-08-06T02:15:45;13.80;99.90
9219;DHT22;4644;48.858;9.184;2023-08-06T02:18:13;13.80;99.90
9219;DHT22;4644;48.858;9.184;2023-08-06T02:20:40;13.70;99.90
9219;DHT22;4644;48.858;9.184;2023-08-06T02:23:08;13.70;99.90
9219;DHT22;4644;48.858;9.184;2023-08-06T02:25:35;13.70;99.90
9219;DHT22;4644;48.858;9.184;2023-08-06T02:28:04;13.70;99.90
9219;DHT22;4644;48.858;9.184;2023-08-06T02:30:31;13.60;99.90
9219;DHT22;4644;48.858;9.184;2023-08-06T02:32:58;13.50;99.90
9219;DHT22;4644;48.858;9.184;2023-08-06T02:35:25;13.60;99.90
9219;DHT22;4644;48.858;9.184;2023-08-06T02:37:52;13.50;99.90
9219;DHT22;4644;48.858;9.184;2023-08-06T02:40:19;13.50;99.90
9219;DHT22;4644;48.858;9.184;2023-08-06T02:42:46;13.40;99.90
9219;DHT22;4644;48.858;9.184;2023-08-06T02:45:15;13.50;99.90
9219;DHT22;4644;48.858;9.184;2023-08-06T02:47:42;13.40;99.90
9219;DHT22;4644;48.858;9.184;2023-08-06T02:50:09;13.40;99.90
9219;DHT22;4644;48.858;9.184;2023-08-06T02:52:36;13.40;99.90
9219;DHT22;4644;48.858;9.184;2023-08-06T02:55:05;13.30;99.90
9219;DHT22;4644;48.858;9.184;2023-08-06T02:57:32;13.30;99.90
9219;DHT22;4644;48.858;9.184;2023-08-06T02:59:59;13.30;99.90
9219;DHT22;4644;48.858;9.184;2023-08-06T03:02:28;13.30;99.90
9219;DHT22;4644;48.858;9.184;2023-08-06T03:04:55;13.30;99.90
9219;DHT22;4644;48.858;9.184;2023-08-06T03:07:22;13.30;99.90
9219;DHT22;4644;48.858;9.184;2023-08-06T03:09:49;13.30;99.90
9219;DHT22;4644;48.858;9.184;2023-08-06T03:12:16;13.30;99.90
9219;DHT22;4644;48.858;9.184;2023-08-06T03:14:43;13.30;99.90
9219;DHT22;4644;48.858;9.184;2023-08-06T03:17:11;13.30;99.90
9219;DHT22;4644;48.858;9.184;2023-08-06T03:19:39;13.30;99.90
9219;DHT22;4644;48.858;9.184;2023-08-06T03:22:06;13.40;99.90
9219;DHT22;4644;48.858;9.184;2023-08-06T03:24:33;13.40;99.90
9219;DHT22;4644;48.858;9.184;2023-08-06T03:27:00;13.50;99.90
9219;DHT22;4644;48.858;9.184;2023-08-06T03:29:27;13.60;99.90
9219;DHT22;4644;48.858;9.184;2023-08-06T03:31:54;13.50;99.90
9219;DHT22;4644;48.858;9.184;2023-08-06T03:34:21;13.50;99.90
9219;DHT22;4644;48.858;9.184;2023-08-06T03:36:50;13.60;99.90
9219;DHT22;4644;48.858;9.184;2023-08-06T03:39:17;13.50;99.90
9219;DHT22;4644;48.858;9.184;2023-08-06T03:41:44;13.50;99.90
9219;DHT22;4644;48.858;9.184;2023-08-06T03:44:11;13.60;99.90
9219;DHT22;4644;48.858;9.184;2023-08-06T03:46:38;13.60;99.90
9219;DHT22;4644;48.858;9.184;2023-08-06T03:49:05;13.60;99.90
9219;DHT22;4644;48.858;9.184;2023-08-06T03:51:32;13.60;99.90
9219;DHT22;4644;48.858;9.184;2023-08-06T03:54:01;13.60;99.90
9219;DHT22;4644;48.858;9.184;2023-08-06T03:56:28;13.70;99.90
9219;DHT22;4644;48.858;9.184;2023-08-06T03:58:55;13.60;99.90
9219;DHT22;4644;48.858;9.184;2023-08-06T04:01:22;13.60;99.90
9219;DHT22;4644;48.858;9.184;2023-08-06T04:03:49;13.70;99.90
9219;DHT22;4644;48.858;9.184;2023-08-06T04:06:16;13.70;99.90
9219;DHT22;4644;48.858;9.184;2023-08-06T04:08:43;13.70;99.90
9219;DHT22;4644;48.858;9.184;2023-08-06T04:11:12;13.60;99.90
9219;DHT22;4644;48.858;9.184;2023-08-06T04:13:42;13.60;99.90
9219;DHT22;4644;48.858;9.184;2023-08-06T04:16:09;13.60;99.90
9219;DHT22;4644;48.858;9.184;2023-08-06T04:18:37;13.60;99.90
9219;DHT22;4644;48.858;9.184;2023-08-06T04:21:04;13.60;99.90
9219;DHT22;4644;48.858;9.184;2023-08-06T04:23:31;13.60;99.90
9219;DHT22;4644;48.858;9.184;2023-08-06T04:25:58;13.60;99.90
9219;DHT22;4644;48.858;9.184;2023-08-06T04:28:26;13.60;99.90
9219;DHT22;4644;48.858;9.184;2023-08-06T04:30:53;13.60;99.90
9219;DHT22;4644;48.858;9.184;2023-08-06T04:33:21;13.60;99.90
9219;DHT22;4644;48.858;9.184;2023-08-06T04:35:53;13.60;99.90
9219;DHT22;4644;48.858;9.184;2023-08-06T04:38:20;13.50;99.90
9219;DHT22;4644;48.858;9.184;2023-08-06T04:40:47;13.50;99.90
9219;DHT22;4644;48.858;9.184;2023-08-06T04:43:14;13.50;99.90
9219;DHT22;4644;48.858;9.184;2023-08-06T04:45:47;13.50;99.90
9219;DHT22;4644;48.858;9.184;2023-08-06T04:48:14;13.50;99.90
9219;DHT22;4644;48.858;9.184;2023-08-06T04:50:44;13.50;99.90
9219;DHT22;4644;48.858;9.184;2023-08-06T04:53:11;13.50;99.90
9219;DHT22;4644;48.858;9.184;2023-08-06T04:55:38;13.50;99.90
9219;DHT22;4644;48.858;9.184;2023-08-06T04:58:05;13.50;99.90
9219;DHT22;4644;48.858;9.184;2023-08-06T05:00:33;13.60;99.90
9219;DHT22;4644;48.858;9.184;2023-08-06T05:03:02;13.60;99.90
9219;DHT22;4644;48.858;9.184;2023-08-06T05:05:29;13.60;99.90
9219;DHT22;4644;48.858;9.184;2023-08-06T05:07:57;13.60;99.90
9219;DHT22;4644;48.858;9.184;2023-08-06T05:10:25;13.60;99.90
9219;DHT22;4644;48.858;9.184;2023-08-06T05:12:52;13.60;99.90
9219;DHT22;4644;48.858;9.184;2023-08-06T05:15:20;13.70;99.90
9219;DHT22;4644;48.858;9.184;2023-08-06T05:17:47;13.70;99.90
9219;DHT22;4644;48.858;9.184;2023-08-06T05:20:15;13.80;99.90
9219;DHT22;4644;48.858;9.184;2023-08-06T05:22:43;13.90;99.90
9219;DHT22;4644;48.858;9.184;2023-08-06T05:25:12;14.00;99.90
9219;DHT22;4644;48.858;9.184;2023-08-06T05:27:39;14.00;99.90
9219;DHT22;4644;48.858;9.184;2023-08-06T05:30:07;14.10;99.90
9219;DHT22;4644;48.858;9.184;2023-08-06T05:32:35;14.20;99.90
9219;DHT22;4644;48.858;9.184;2023-08-06T05:35:02;14.30;99.90
9219;DHT22;4644;48.858;9.184;2023-08-06T05:37:31;14.40;99.90
9219;DHT22;4644;48.858;9.184;2023-08-06T05:39:58;14.50;99.90
9219;DHT22;4644;48.858;9.184;2023-08-06T05:42:25;14.40;99.90
9219;DHT22;4644;48.858;9.184;2023-08-06T05:44:52;14.40;99.90
9219;DHT22;4644;48.858;9.184;2023-08-06T05:47:19;14.40;99.90
9219;DHT22;4644;48.858;9.184;2023-08-06T05:49:46;14.50;99.90
9219;DHT22;4644;48.858;9.184;2023-08-06T05:52:13;14.40;99.90
9219;DHT22;4644;48.858;9.184;2023-08-06T05:54:41;14.40;99.90
9219;DHT22;4644;48.858;9.184;2023-08-06T05:57:08;14.40;99.90
9219;DHT22;4644;48.858;9.184;2023-08-06T05:59:35;14.40;99.90
9219;DHT22;4644;48.858;9.184;2023-08-06T06:02:03;14.40;99.90
9219;DHT22;4644;48.858;9.184;2023-08-06T06:04:30;14.20;99.90
9219;DHT22;4644;48.858;9.184;2023-08-06T06:06:57;14.20;99.90
9219;DHT22;4644;48.858;9.184;2023-08-06T06:09:24;14.10;99.90
9219;DHT22;4644;48.858;9.184;2023-08-06T06:11:53;14.20;99.90
9219;DHT22;4644;48.858;9.184;2023-08-06T06:14:20;14.20;99.90
9219;DHT22;4644;48.858;9.184;2023-08-06T06:16:47;14.30;99.90
9219;DHT22;4644;48.858;9.184;2023-08-06T06:19:14;14.20;99.90
9219;DHT22;4644;48.858;9.184;2023-08-06T06:21:41;14.20;99.90
9219;DHT22;4644;48.858;9.184;2023-08-06T06:24:08;14.20;99.90
9219;DHT22;4644;48.858;9.184;2023-08-06T06:26:35;14.10;99.90
9219;DHT22;4644;48.858;9.184;2023-08-06T06:29:04;14.00;99.90
9219;DHT22;4644;48.858;9.184;2023-08-06T06:31:31;13.90;99.90
9219;DHT22;4644;48.858;9.184;2023-08-06T06:33:58;13.80;99.90
9219;DHT22;4644;48.858;9.184;2023-08-06T06:36:25;13.70;99.90
9219;DHT22;4644;48.858;9.184;2023-08-06T06:38:52;13.70;99.90
9219;DHT22;4644;48.858;9.184;2023-08-06T06:41:19;13.70;99.90
9219;DHT22;4644;48.858;9.184;2023-08-06T06:43:46;13.70;99.90
9219;DHT22;4644;48.858;9.184;2023-08-06T06:46:15;13.70;99.90
9219;DHT22;4644;48.858;9.184;2023-08-06T06:48:42;13.70;99.90
9219;DHT22;4644;48.858;9.184;2023-08-06T06:51:09;13.70;99.90
9219;DHT22;4644;48.858;9.184;2023-08-06T06:53:36;13.70;99.90
9219;DHT22;4644;48.858;9.184;2023-08-06T06:56:04;13.70;99.90
9219;DHT22;4644;48.858;9.184;2023-08-06T06:58:31;13.70;99.90
9219;DHT22;4644;48.858;9.184;2023-08-06T07:00:59;13.70;99.90
9219;DHT22;4644;48.858;9.184;2023-08-06T07:03:27;13.70;99.90
9219;DHT22;4644;48.858;9.184;2023-08-06T07:05:57;13.70;99.90
9219;DHT22;4644;48.858;9.184;2023-08-06T07:08:25;13.70;99.90
9219;DHT22;4644;48.858;9.184;2023-08-06T07:10:59;13.70;99.90
9219;DHT22;4644;48.858;9.184;2023-08-06T07:13:27;13.80;99.90
9219;DHT22;4644;48.858;9.184;2023-08-06T07:15:55;13.80;99.90
9219;DHT22;4644;48.858;9.184;2023-08-06T07:18:22;13.80;99.90
9219;DHT22;4644;48.858;9.184;2023-08-06T07:20:51;13.80;99.90
9219;DHT22;4644;48.858;9.184;2023-08-06T07:23:19;13.80;99.90
9219;DHT22;4644;48.858;9.184;2023-08-06T07:25:47;13.70;99.90
9219;DHT22;4644;48.858;9.184;2023-08-06T07:28:14;13.70;99.90
9219;DHT22;4644;48.858;9.184;2023-08-06T07:30:42;13.80;99.90
9219;DHT22;4644;48.858;9.184;2023-08-06T07:33:09;13.80;99.90
9219;DHT22;4644;48.858;9.184;2023-08-06T07:35:38;13.80;99.90
9219;DHT22;4644;48.858;9.184;2023-08-06T07:38:07;13.80;99.90
9219;DHT22;4644;48.858;9.184;2023-08-06T07:40:35;13.80;99.90
9219;DHT22;4644;48.858;9.184;2023-08-06T07:43:03;13.80;99.90
9219;DHT22;4644;48.858;9.184;2023-08-06T07:45:33;13.80;99.90
9219;DHT22;4644;48.858;9.184;2023-08-06T07:48:01;13.90;99.90
9219;DHT22;4644;48.858;9.184;2023-08-06T07:50:29;13.90;99.90
9219;DHT22;4644;48.858;9.184;2023-08-06T07:52:56;14.00;99.90
9219;DHT22;4644;48.858;9.184;2023-08-06T07:55:25;14.00;99.90
9219;DHT22;4644;48.858;9.184;2023-08-06T07:57:54;14.10;99.90
9219;DHT22;4644;48.858;9.184;2023-08-06T08:00:21;14.30;99.90
9219;DHT22;4644;48.858;9.184;2023-08-06T08:02:48;14.20;99.90
9219;DHT22;4644;48.858;9.184;2023-08-06T08:05:15;14.10;99.90
9219;DHT22;4644;48.858;9.184;2023-08-06T08:07:42;14.10;99.90
9219;DHT22;4644;48.858;9.184;2023-08-06T08:10:10;14.10;99.90
9219;DHT22;4644;48.858;9.184;2023-08-06T08:12:38;14.10;99.90
9219;DHT22;4644;48.858;9.184;2023-08-06T08:15:06;14.20;99.90
9219;DHT22;4644;48.858;9.184;2023-08-06T08:17:33;14.30;99.90
9219;DHT22;4644;48.858;9.184;2023-08-06T08:20:00;14.40;99.90
9219;DHT22;4644;48.858;9.184;2023-08-06T08:22:29;14.60;99.90
9219;DHT22;4644;48.858;9.184;2023-08-06T08:24:56;14.80;99.90
9219;DHT22;4644;48.858;9.184;2023-08-06T08:27:23;15.00;99.90
9219;DHT22;4644;48.858;9.184;2023-08-06T08:29:51;15.10;99.90
9219;DHT22;4644;48.858;9.184;2023-08-06T08:32:18;15.30;99.90
9219;DHT22;4644;48.858;9.184;2023-08-06T08:34:47;15.60;99.90
9219;DHT22;4644;48.858;9.184;2023-08-06T08:37:14;15.70;99.90
9219;DHT22;4644;48.858;9.184;2023-08-06T08:39:41;15.80;99.90
9219;DHT22;4644;48.858;9.184;2023-08-06T08:42:09;15.80;99.90
9219;DHT22;4644;48.858;9.184;2023-08-06T08:44:37;15.80;99.90
9219;DHT22;4644;48.858;9.184;2023-08-06T08:47:06;15.90;99.90
9219;DHT22;4644;48.858;9.184;2023-08-06T08:49:35;15.90;99.90
9219;DHT22;4644;48.858;9.184;2023-08-06T08:52:04;15.90;99.90
9219;DHT22;4644;48.858;9.184;2023-08-06T08:54:32;16.10;99.90
9219;DHT22;4644;48.858;9.184;2023-08-06T08:57:00;16.10;99.90
9219;DHT22;4644;48.858;9.184;2023-08-06T08:59:27;16.10;99.90
9219;DHT22;4644;48.858;9.184;2023-08-06T09:01:55;15.90;99.90
9219;DHT22;4644;48.858;9.184;2023-08-06T09:04:24;15.70;99.90
9219;DHT22;4644;48.858;9.184;2023-08-06T09:06:55;15.40;99.90
9219;DHT22;4644;48.858;9.184;2023-08-06T09:09:26;15.00;99.90
9219;DHT22;4644;48.858;9.184;2023-08-06T09:12:01;14.70;99.90
9219;DHT22;4644;48.858;9.184;2023-08-06T09:14:32;14.60;99.90
9219;DHT22;4644;48.858;9.184;2023-08-06T09:17:00;14.40;99.90
9219;DHT22;4644;48.858;9.184;2023-08-06T09:19:29;14.30;99.90
9219;DHT22;4644;48.858;9.184;2023-08-06T09:21:56;14.20;99.90
9219;DHT22;4644;48.858;9.184;2023-08-06T09:24:23;14.30;99.90
9219;DHT22;4644;48.858;9.184;2023-08-06T09:26:51;14.20;99.90
9219;DHT22;4644;48.858;9.184;2023-08-06T09:29:20;14.20;99.90
9219;DHT22;4644;48.858;9.184;2023-08-06T09:31:48;14.20;99.90
9219;DHT22;4644;48.858;9.184;2023-08-06T09:34:18;14.20;99.90
9219;DHT22;4644;48.858;9.184;2023-08-06T09:36:48;14.30;99.90
9219;DHT22;4644;48.858;9.184;2023-08-06T09:39:17;14.30;99.90
9219;DHT22;4644;48.858;9.184;2023-08-06T09:41:45;14.20;99.90
9219;DHT22;4644;48.858;9.184;2023-08-06T09:44:17;14.20;99.90
9219;DHT22;4644;48.858;9.184;2023-08-06T09:46:47;14.20;99.90
9219;DHT22;4644;48.858;9.184;2023-08-06T09:49:15;14.20;99.90
9219;DHT22;4644;48.858;9.184;2023-08-06T09:51:42;14.20;99.90
9219;DHT22;4644;48.858;9.184;2023-08-06T09:54:12;14.20;99.90
9219;DHT22;4644;48.858;9.184;2023-08-06T09:56:40;14.20;99.90
9219;DHT22;4644;48.858;9.184;2023-08-06T09:59:07;14.20;99.90
9219;DHT22;4644;48.858;9.184;2023-08-06T10:01:35;14.10;99.90
9219;DHT22;4644;48.858;9.184;2023-08-06T10:04:04;14.20;99.90
9219;DHT22;4644;48.858;9.184;2023-08-06T10:06:34;14.20;99.90
9219;DHT22;4644;48.858;9.184;2023-08-06T10:09:01;14.30;99.90
9219;DHT22;4644;48.858;9.184;2023-08-06T10:11:31;14.30;99.90
9219;DHT22;4644;48.858;9.184;2023-08-06T10:14:02;14.30;99.90
9219;DHT22;4644;48.858;9.184;2023-08-06T10:16:31;14.20;99.90
9219;DHT22;4644;48.858;9.184;2023-08-06T10:19:00;14.30;99.90
9219;DHT22;4644;48.858;9.184;2023-08-06T10:21:27;14.40;99.90
9219;DHT22;4644;48.858;9.184;2023-08-06T10:23:56;14.40;99.90
9219;DHT22;4644;48.858;9.184;2023-08-06T10:26:25;14.50;99.90
9219;DHT22;4644;48.858;9.184;2023-08-06T10:28:55;14.50;99.90
9219;DHT22;4644;48.858;9.184;2023-08-06T10:31:58;14.50;99.90
9219;DHT22;4644;48.858;9.184;2023-08-06T10:34:32;14.50;99.90
9219;DHT22;4644;48.858;9.184;2023-08-06T10:37:19;14.60;99.90
9219;DHT22;4644;48.858;9.184;2023-08-06T10:39:49;14.70;99.90
9219;DHT22;4644;48.858;9.184;2023-08-06T10:42:20;14.70;99.90
9219;DHT22;4644;48.858;9.184;2023-08-06T10:45:14;14.70;99.90
9219;DHT22;4644;48.858;9.184;2023-08-06T10:47:42;15.00;99.90
9219;DHT22;4644;48.858;9.184;2023-08-06T10:50:12;15.10;99.90
9219;DHT22;4644;48.858;9.184;2023-08-06T10:52:40;15.20;99.90
9219;DHT22;4644;48.858;9.184;2023-08-06T10:55:07;15.30;99.90
9219;DHT22;4644;48.858;9.184;2023-08-06T10:57:35;15.30;99.90
9219;DHT22;4644;48.858;9.184;2023-08-06T11:00:04;15.30;99.90
9219;DHT22;4644;48.858;9.184;2023-08-06T11:02:35;15.20;99.90
9219;DHT22;4644;48.858;9.184;2023-08-06T11:05:06;15.10;99.90
9219;DHT22;4644;48.858;9.184;2023-08-06T11:07:34;15.00;99.90
9219;DHT22;4644;48.858;9.184;2023-08-06T11:10:03;14.80;99.90
9219;DHT22;4644;48.858;9.184;2023-08-06T11:12:30;14.60;99.90
9219;DHT22;4644;48.858;9.184;2023-08-06T11:14:58;14.50;99.90
9219;DHT22;4644;48.858;9.184;2023-08-06T11:17:25;14.40;99.90
9219;DHT22;4644;48.858;9.184;2023-08-06T11:19:55;14.30;99.90
9219;DHT22;4644;48.858;9.184;2023-08-06T11:22:23;14.30;99.90
9219;DHT22;4644;48.858;9.184;2023-08-06T11:24:50;14.30;99.90
9219;DHT22;4644;48.858;9.184;2023-08-06T11:27:17;14.20;99.90
9219;DHT22;4644;48.858;9.184;2023-08-06T11:29:44;14.20;99.90
9219;DHT22;4644;48.858;9.184;2023-08-06T11:32:12;14.10;99.90
9219;DHT22;4644;48.858;9.184;2023-08-06T11:34:39;14.10;99.90
9219;DHT22;4644;48.858;9.184;2023-08-06T11:37:08;14.10;99.90
9219;DHT22;4644;48.858;9.184;2023-08-06T11:39:37;14.10;99.90
9219;DHT22;4644;48.858;9.184;2023-08-06T11:42:05;14.20;99.90
9219;DHT22;4644;48.858;9.184;2023-08-06T11:44:35;14.30;99.90
9219;DHT22;4644;48.858;9.184;2023-08-06T11:47:04;14.40;99.90
9219;DHT22;4644;48.858;9.184;2023-08-06T11:49:38;14.40;99.90
9219;DHT22;4644;48.858;9.184;2023-08-06T11:52:14;14.40;99.90
9219;DHT22;4644;48.858;9.184;2023-08-06T11:54:44;14.30;99.90
9219;DHT22;4644;48.858;9.184;2023-08-06T11:57:12;14.10;99.90
9219;DHT22;4644;48.858;9.184;2023-08-06T11:59:39;13.90;99.90
9219;DHT22;4644;48.858;9.184;2023-08-06T12:02:09;13.80;99.90
9219;DHT22;4644;48.858;9.184;2023-08-06T12:05:02;13.60;99.90
9219;DHT22;4644;48.858;9.184;2023-08-06T12:07:32;13.50;99.90
9219;DHT22;4644;48.858;9.184;2023-08-06T12:10:00;13.30;99.90
9219;DHT22;4644;48.858;9.184;2023-08-06T12:12:27;13.20;99.90
9219;DHT22;4644;48.858;9.184;2023-08-06T12:14:55;13.10;99.90
9219;DHT22;4644;48.858;9.184;2023-08-06T12:17:23;13.10;99.90
9219;DHT22;4644;48.858;9.184;2023-08-06T12:19:50;13.00;99.90
9219;DHT22;4644;48.858;9.184;2023-08-06T12:22:18;13.00;99.90
9219;DHT22;4644;48.858;9.184;2023-08-06T12:24:47;13.00;99.90
9219;DHT22;4644;48.858;9.184;2023-08-06T12:27:14;13.00;99.90
9219;DHT22;4644;48.858;9.184;2023-08-06T12:29:42;13.00;99.90
9219;DHT22;4644;48.858;9.184;2023-08-06T12:32:09;13.00;99.90
9219;DHT22;4644;48.858;9.184;2023-08-06T12:34:38;13.00;99.90
9219;DHT22;4644;48.858;9.184;2023-08-06T12:37:05;13.10;99.90
9219;DHT22;4644;48.858;9.184;2023-08-06T12:39:33;13.20;99.90
9219;DHT22;4644;48.858;9.184;2023-08-06T12:42:02;13.20;99.90
9219;DHT22;4644;48.858;9.184;2023-08-06T12:44:29;13.30;99.90
9219;DHT22;4644;48.858;9.184;2023-08-06T12:46:57;13.40;99.90
9219;DHT22;4644;48.858;9.184;2023-08-06T12:49:25;13.50;99.90
9219;DHT22;4644;48.858;9.184;2023-08-06T12:51:53;13.60;99.90
9219;DHT22;4644;48.858;9.184;2023-08-06T12:54:21;13.70;99.90
9219;DHT22;4644;48.858;9.184;2023-08-06T12:56:48;13.80;99.90
9219;DHT22;4644;48.858;9.184;2023-08-06T12:59:18;13.80;99.90
9219;DHT22;4644;48.858;9.184;2023-08-06T13:01:45;13.90;99.90
9219;DHT22;4644;48.858;9.184;2023-08-06T13:04:14;14.10;99.90
9219;DHT22;4644;48.858;9.184;2023-08-06T13:06:41;14.20;99.90
9219;DHT22;4644;48.858;9.184;2023-08-06T13:09:08;14.30;99.90
9219;DHT22;4644;48.858;9.184;2023-08-06T13:11:36;14.40;99.90
9219;DHT22;4644;48.858;9.184;2023-08-06T13:14:07;14.50;99.90
9219;DHT22;4644;48.858;9.184;2023-08-06T13:16:37;14.70;99.90
9219;DHT22;4644;48.858;9.184;2023-08-06T13:19:05;14.70;99.90
9219;DHT22;4644;48.858;9.184;2023-08-06T13:21:34;14.80;99.90
9219;DHT22;4644;48.858;9.184;2023-08-06T13:24:02;15.10;99.90
9219;DHT22;4644;48.858;9.184;2023-08-06T13:26:29;15.40;99.90
9219;DHT22;4644;48.858;9.184;2023-08-06T13:28:57;15.70;99.90
9219;DHT22;4644;48.858;9.184;2023-08-06T13:31:25;15.90;99.90
9219;DHT22;4644;48.858;9.184;2023-08-06T13:33:54;16.00;99.90
9219;DHT22;4644;48.858;9.184;2023-08-06T13:36:23;16.10;99.90
9219;DHT22;4644;48.858;9.184;2023-08-06T13:38:50;16.20;99.90
9219;DHT22;4644;48.858;9.184;2023-08-06T13:41:18;16.20;99.90
9219;DHT22;4644;48.858;9.184;2023-08-06T13:43:45;16.10;99.90
9219;DHT22;4644;48.858;9.184;2023-08-06T13:46:13;16.10;99.90
9219;DHT22;4644;48.858;9.184;2023-08-06T13:48:42;16.10;99.90
9219;DHT22;4644;48.858;9.184;2023-08-06T13:51:11;16.20;99.90
9219;DHT22;4644;48.858;9.184;2023-08-06T13:53:38;16.30;99.90
9219;DHT22;4644;48.858;9.184;2023-08-06T13:56:06;16.20;99.90
9219;DHT22;4644;48.858;9.184;2023-08-06T13:58:35;16.10;99.90
9219;DHT22;4644;48.858;9.184;2023-08-06T14:01:03;15.90;99.90
9219;DHT22;4644;48.858;9.184;2023-08-06T14:03:30;16.00;99.90
9219;DHT22;4644;48.858;9.184;2023-08-06T14:05:57;15.90;99.90
9219;DHT22;4644;48.858;9.184;2023-08-06T14:08:26;15.90;99.90
9219;DHT22;4644;48.858;9.184;2023-08-06T14:10:53;15.80;99.90
9219;DHT22;4644;48.858;9.184;2023-08-06T14:13:21;15.40;99.90
9219;DHT22;4644;48.858;9.184;2023-08-06T14:15:48;15.20;99.90
9219;DHT22;4644;48.858;9.184;2023-08-06T14:18:16;15.00;99.90
9219;DHT22;4644;48.858;9.184;2023-08-06T14:20:43;14.90;99.90
9219;DHT22;4644;48.858;9.184;2023-08-06T14:23:11;14.80;99.90
9219;DHT22;4644;48.858;9.184;2023-08-06T14:25:39;14.80;99.90
9219;DHT22;4644;48.858;9.184;2023-08-06T14:28:07;14.80;99.90
9219;DHT22;4644;48.858;9.184;2023-08-06T14:30:34;14.80;99.90
9219;DHT22;4644;48.858;9.184;2023-08-06T14:33:02;15.00;99.90
9219;DHT22;4644;48.858;9.184;2023-08-06T14:35:29;15.20;99.90
9219;DHT22;4644;48.858;9.184;2023-08-06T14:37:56;15.40;99.90
9219;DHT22;4644;48.858;9.184;2023-08-06T14:40:23;15.50;99.90
9219;DHT22;4644;48.858;9.184;2023-08-06T14:42:55;15.70;99.90
9219;DHT22;4644;48.858;9.184;2023-08-06T14:45:22;15.70;99.90
9219;DHT22;4644;48.858;9.184;2023-08-06T14:47:49;15.70;99.90
9219;DHT22;4644;48.858;9.184;2023-08-06T14:50:17;15.80;99.90
9219;DHT22;4644;48.858;9.184;2023-08-06T14:52:44;15.80;99.90
9219;DHT22;4644;48.858;9.184;2023-08-06T14:55:11;15.80;99.90
9219;DHT22;4644;48.858;9.184;2023-08-06T14:57:44;15.80;99.90
9219;DHT22;4644;48.858;9.184;2023-08-06T15:00:13;15.90;99.90
9219;DHT22;4644;48.858;9.184;2023-08-06T15:02:40;15.90;99.90
9219;DHT22;4644;48.858;9.184;2023-08-06T15:05:07;15.90;99.90
9219;DHT22;4644;48.858;9.184;2023-08-06T15:07:34;15.80;99.90
9219;DHT22;4644;48.858;9.184;2023-08-06T15:10:04;15.80;99.90
9219;DHT22;4644;48.858;9.184;2023-08-06T15:12:31;15.60;99.90
9219;DHT22;4644;48.858;9.184;2023-08-06T15:14:58;15.50;99.90
9219;DHT22;4644;48.858;9.184;2023-08-06T15:17:27;15.30;99.90
9219;DHT22;4644;48.858;9.184;2023-08-06T15:19:55;15.10;99.90
9219;DHT22;4644;48.858;9.184;2023-08-06T15:22:22;15.00;99.90
9219;DHT22;4644;48.858;9.184;2023-08-06T15:24:49;14.80;99.90
9219;DHT22;4644;48.858;9.184;2023-08-06T15:27:17;14.70;99.90
9219;DHT22;4644;48.858;9.184;2023-08-06T15:29:45;14.80;99.90
9219;DHT22;4644;48.858;9.184;2023-08-06T15:32:12;14.80;99.90
9219;DHT22;4644;48.858;9.184;2023-08-06T15:34:41;14.90;99.90
9219;DHT22;4644;48.858;9.184;2023-08-06T15:37:08;15.00;99.90
9219;DHT22;4644;48.858;9.184;2023-08-06T15:39:35;15.10;99.90
9219;DHT22;4644;48.858;9.184;2023-08-06T15:42:02;15.20;99.90
9219;DHT22;4644;48.858;9.184;2023-08-06T15:44:29;15.20;99.90
9219;DHT22;4644;48.858;9.184;2023-08-06T15:46:57;15.20;99.90
9219;DHT22;4644;48.858;9.184;2023-08-06T15:49:24;15.30;99.90
9219;DHT22;4644;48.858;9.184;2023-08-06T15:51:52;15.40;99.90
9219;DHT22;4644;48.858;9.184;2023-08-06T15:54:19;15.50;99.90
9219;DHT22;4644;48.858;9.184;2023-08-06T15:56:47;15.60;99.90
9219;DHT22;4644;48.858;9.184;2023-08-06T15:59:24;15.50;99.90
9219;DHT22;4644;48.858;9.184;2023-08-06T16:01:52;15.50;99.90
9219;DHT22;4644;48.858;9.184;2023-08-06T16:04:19;15.40;99.90
9219;DHT22;4644;48.858;9.184;2023-08-06T16:06:47;15.50;99.90
9219;DHT22;4644;48.858;9.184;2023-08-06T16:09:15;15.40;99.90